AEE2ZA LGSA-LGZA
Flight info
| Callsign | AEE2ZA |
|---|---|
| Flight time | 0h 36m |
| Altitude | 30000 |
| Route | SOKRI DCT KLM DCT ZAK |
| Aircraft | A320/M-SDE3FGHIRWY/LB1 |
Departure
| Time | 2026-04-26 15:36 |
|---|---|
| Airport | Chania International Airport (LGSA) |
Arrival
| Time | 2026-04-26 16:13 |
|---|---|
| Airport | Zakynthos International Airport Dionysios Solomos (LGZA) |
| Time | Latitude | Longitude | Altitude | Speed | Heading |
|---|---|---|---|---|---|
| 2026-04-26 15:07 | 35.53781 | 24.14341 | 487 ft | 0 kts | 22° |
| 2026-04-26 15:26 | 35.53778 | 24.14339 | 489 ft | 3 kts | 21° |
| 2026-04-26 15:26 | 35.53752 | 24.14328 | 490 ft | 4 kts | 17° |
| 2026-04-26 15:26 | 35.53727 | 24.14319 | 494 ft | 4 kts | 20° |
| 2026-04-26 15:27 | 35.53705 | 24.14305 | 490 ft | 4 kts | 60° |
| 2026-04-26 15:27 | 35.53701 | 24.14295 | 489 ft | 0 kts | 112° |
| 2026-04-26 15:27 | 35.53701 | 24.14294 | 489 ft | 0 kts | 112° |
| 2026-04-26 15:29 | 35.53701 | 24.14296 | 490 ft | 1 kts | 112° |
| 2026-04-26 15:29 | 35.53688 | 24.14335 | 495 ft | 4 kts | 113° |
| 2026-04-26 15:30 | 35.53607 | 24.14345 | 490 ft | 7 kts | 200° |
| 2026-04-26 15:30 | 35.53556 | 24.14359 | 489 ft | 10 kts | 125° |
| 2026-04-26 15:30 | 35.53526 | 24.14449 | 498 ft | 13 kts | 111° |
| 2026-04-26 15:31 | 35.53486 | 24.14572 | 493 ft | 18 kts | 112° |
| 2026-04-26 15:31 | 35.53388 | 24.14873 | 492 ft | 14 kts | 111° |
| 2026-04-26 15:31 | 35.53345 | 24.15007 | 490 ft | 19 kts | 111° |
| 2026-04-26 15:32 | 35.53248 | 24.15303 | 496 ft | 26 kts | 111° |
| 2026-04-26 15:32 | 35.53156 | 24.15588 | 495 ft | 27 kts | 111° |
| 2026-04-26 15:32 | 35.53084 | 24.15807 | 489 ft | 29 kts | 112° |
| 2026-04-26 15:33 | 35.53017 | 24.16013 | 489 ft | 21 kts | 111° |
| 2026-04-26 15:33 | 35.52967 | 24.16169 | 494 ft | 18 kts | 111° |
| 2026-04-26 15:33 | 35.52916 | 24.16324 | 490 ft | 21 kts | 112° |
| 2026-04-26 15:33 | 35.52855 | 24.16509 | 491 ft | 25 kts | 112° |
| 2026-04-26 15:34 | 35.52790 | 24.16710 | 496 ft | 26 kts | 111° |
| 2026-04-26 15:34 | 35.52748 | 24.16839 | 496 ft | 8 kts | 113° |
| 2026-04-26 15:34 | 35.52701 | 24.16872 | 497 ft | 2 kts | 193° |
| 2026-04-26 15:34 | 35.52675 | 24.16861 | 491 ft | 6 kts | 200° |
| 2026-04-26 15:35 | 35.52622 | 24.16836 | 495 ft | 11 kts | 201° |
| 2026-04-26 15:35 | 35.52580 | 24.16797 | 495 ft | 5 kts | 259° |
| 2026-04-26 15:35 | 35.52591 | 24.16755 | 491 ft | 5 kts | 291° |
| 2026-04-26 15:35 | 35.52610 | 24.16696 | 495 ft | 15 kts | 291° |
| 2026-04-26 15:36 | 35.52741 | 24.16292 | 499 ft | 85 kts | 292° |
| 2026-04-26 15:36 | 35.53032 | 24.15400 | 482 ft | 137 kts | 291° |
| 2026-04-26 15:36 | 35.53430 | 24.14175 | 694 ft | 162 kts | 292° |
| 2026-04-26 15:36 | 35.53847 | 24.12870 | 1281 ft | 166 kts | 292° |
| 2026-04-26 15:37 | 35.54285 | 24.11548 | 1944 ft | 168 kts | 294° |
| 2026-04-26 15:37 | 35.54724 | 24.10214 | 2506 ft | 176 kts | 294° |
| 2026-04-26 15:37 | 35.55273 | 24.08778 | 2788 ft | 196 kts | 309° |
| 2026-04-26 15:37 | 35.56244 | 24.07461 | 3077 ft | 221 kts | 315° |
| 2026-04-26 15:38 | 35.57356 | 24.06011 | 3476 ft | 245 kts | 315° |
| 2026-04-26 15:38 | 35.58557 | 24.04437 | 4161 ft | 257 kts | 315° |
| 2026-04-26 15:38 | 35.59789 | 24.02814 | 5044 ft | 262 kts | 315° |
| 2026-04-26 15:38 | 35.61040 | 24.01164 | 5932 ft | 266 kts | 315° |
| 2026-04-26 15:39 | 35.62316 | 23.99482 | 6789 ft | 271 kts | 315° |
| 2026-04-26 15:39 | 35.63610 | 23.97776 | 7638 ft | 274 kts | 315° |
| 2026-04-26 15:39 | 35.64918 | 23.96051 | 8475 ft | 277 kts | 315° |
| 2026-04-26 15:39 | 35.65795 | 23.94897 | 9058 ft | 279 kts | 315° |
| 2026-04-26 15:40 | 35.67566 | 23.92563 | 10147 ft | 284 kts | 315° |
| 2026-04-26 15:40 | 35.68954 | 23.90733 | 10499 ft | 304 kts | 315° |
| 2026-04-26 15:40 | 35.70453 | 23.88759 | 10704 ft | 327 kts | 315° |
| 2026-04-26 15:40 | 35.72067 | 23.86633 | 10847 ft | 350 kts | 315° |
| 2026-04-26 15:41 | 35.73779 | 23.84373 | 10980 ft | 371 kts | 314° |
| 2026-04-26 15:41 | 35.75579 | 23.81992 | 11297 ft | 384 kts | 314° |
| 2026-04-26 15:41 | 35.77411 | 23.79562 | 11861 ft | 389 kts | 314° |
| 2026-04-26 15:41 | 35.79231 | 23.77144 | 12463 ft | 392 kts | 315° |
| 2026-04-26 15:42 | 35.81093 | 23.74668 | 13062 ft | 395 kts | 315° |
| 2026-04-26 15:42 | 35.82971 | 23.72167 | 13692 ft | 398 kts | 315° |
| 2026-04-26 15:42 | 35.84856 | 23.69658 | 14254 ft | 401 kts | 315° |
| 2026-04-26 15:42 | 35.86759 | 23.67133 | 14796 ft | 403 kts | 315° |
| 2026-04-26 15:43 | 35.88673 | 23.64593 | 15316 ft | 406 kts | 315° |
| 2026-04-26 15:43 | 35.90600 | 23.62026 | 15842 ft | 409 kts | 315° |
| 2026-04-26 15:43 | 35.94482 | 23.56849 | 16884 ft | 414 kts | 315° |
| 2026-04-26 15:44 | 35.96446 | 23.54231 | 17404 ft | 417 kts | 315° |
| 2026-04-26 15:44 | 36.00410 | 23.48934 | 18411 ft | 422 kts | 315° |
| 2026-04-26 15:44 | 36.02407 | 23.46257 | 18847 ft | 425 kts | 315° |
| 2026-04-26 15:45 | 36.06435 | 23.40854 | 19734 ft | 430 kts | 314° |
| 2026-04-26 15:45 | 36.08470 | 23.38123 | 20170 ft | 433 kts | 314° |
| 2026-04-26 15:46 | 36.12555 | 23.32653 | 20991 ft | 437 kts | 314° |
| 2026-04-26 15:46 | 36.14619 | 23.29883 | 21385 ft | 439 kts | 314° |
| 2026-04-26 15:46 | 36.16695 | 23.27088 | 21763 ft | 442 kts | 314° |
| 2026-04-26 15:46 | 36.18073 | 23.25229 | 22005 ft | 443 kts | 314° |
| 2026-04-26 15:47 | 36.20873 | 23.21454 | 22482 ft | 446 kts | 314° |
| 2026-04-26 15:47 | 36.25083 | 23.15771 | 23163 ft | 450 kts | 314° |
| 2026-04-26 15:47 | 36.27204 | 23.12908 | 23526 ft | 452 kts | 314° |
| 2026-04-26 15:48 | 36.29308 | 23.10071 | 23866 ft | 453 kts | 314° |
| 2026-04-26 15:48 | 36.31432 | 23.07198 | 24316 ft | 451 kts | 314° |
| 2026-04-26 15:48 | 36.33545 | 23.04329 | 24770 ft | 449 kts | 314° |
| 2026-04-26 15:48 | 36.35653 | 23.01466 | 25227 ft | 448 kts | 314° |
| 2026-04-26 15:49 | 36.37750 | 22.98620 | 25673 ft | 447 kts | 314° |
| 2026-04-26 15:49 | 36.39850 | 22.95772 | 26137 ft | 446 kts | 314° |
| 2026-04-26 15:49 | 36.41940 | 22.92937 | 26613 ft | 445 kts | 314° |
| 2026-04-26 15:49 | 36.44024 | 22.90103 | 27093 ft | 443 kts | 314° |
| 2026-04-26 15:50 | 36.46099 | 22.87275 | 27575 ft | 442 kts | 314° |
| 2026-04-26 15:50 | 36.48144 | 22.84487 | 28069 ft | 441 kts | 314° |
| 2026-04-26 15:50 | 36.50204 | 22.81677 | 28574 ft | 439 kts | 314° |
| 2026-04-26 15:50 | 36.52263 | 22.78866 | 29077 ft | 438 kts | 314° |
| 2026-04-26 15:51 | 36.54311 | 22.76069 | 29565 ft | 437 kts | 313° |
| 2026-04-26 15:51 | 36.56362 | 22.73267 | 29959 ft | 438 kts | 313° |
| 2026-04-26 15:51 | 36.58423 | 22.70443 | 30041 ft | 444 kts | 313° |
| 2026-04-26 15:52 | 36.62608 | 22.64706 | 30043 ft | 450 kts | 313° |
| 2026-04-26 15:52 | 36.66822 | 22.58922 | 30043 ft | 451 kts | 313° |
| 2026-04-26 15:53 | 36.71032 | 22.53131 | 30042 ft | 451 kts | 313° |
| 2026-04-26 15:53 | 36.75212 | 22.47372 | 30043 ft | 451 kts | 313° |
| 2026-04-26 15:54 | 36.79419 | 22.41569 | 30036 ft | 451 kts | 313° |
| 2026-04-26 15:54 | 36.83624 | 22.35753 | 30036 ft | 451 kts | 313° |
| 2026-04-26 15:55 | 36.87826 | 22.29932 | 29855 ft | 452 kts | 313° |
| 2026-04-26 15:55 | 36.89931 | 22.27013 | 29571 ft | 452 kts | 313° |
| 2026-04-26 15:55 | 36.92037 | 22.24089 | 29290 ft | 452 kts | 313° |
| 2026-04-26 15:55 | 36.94140 | 22.21170 | 29015 ft | 453 kts | 313° |
| 2026-04-26 15:56 | 36.96247 | 22.18244 | 28204 ft | 454 kts | 313° |
| 2026-04-26 15:56 | 36.98346 | 22.15326 | 27035 ft | 458 kts | 313° |
| 2026-04-26 15:56 | 37.00491 | 22.12341 | 25850 ft | 462 kts | 313° |
| 2026-04-26 15:56 | 37.02652 | 22.09333 | 24661 ft | 466 kts | 313° |
| 2026-04-26 15:57 | 37.04824 | 22.06304 | 23555 ft | 468 kts | 313° |
| 2026-04-26 15:57 | 37.06976 | 22.03295 | 22792 ft | 459 kts | 313° |
| 2026-04-26 15:57 | 37.09052 | 22.00305 | 21844 ft | 453 kts | 309° |
| 2026-04-26 15:57 | 37.10262 | 21.98184 | 21222 ft | 450 kts | 304° |
| 2026-04-26 15:58 | 37.12256 | 21.93608 | 20041 ft | 445 kts | 297° |
| 2026-04-26 15:58 | 37.13478 | 21.90159 | 18886 ft | 433 kts | 295° |
| 2026-04-26 15:58 | 37.14616 | 21.86753 | 18042 ft | 413 kts | 295° |
| 2026-04-26 15:58 | 37.15730 | 21.83519 | 17221 ft | 396 kts | 296° |
| 2026-04-26 15:59 | 37.16879 | 21.80405 | 16440 ft | 393 kts | 297° |
| 2026-04-26 15:59 | 37.18083 | 21.77329 | 15667 ft | 395 kts | 298° |
| 2026-04-26 15:59 | 37.19326 | 21.74259 | 14892 ft | 395 kts | 298° |
| 2026-04-26 15:59 | 37.20584 | 21.71194 | 14157 ft | 395 kts | 299° |
| 2026-04-26 16:00 | 37.21841 | 21.68129 | 13387 ft | 394 kts | 298° |
| 2026-04-26 16:00 | 37.23082 | 21.65077 | 12646 ft | 391 kts | 298° |
| 2026-04-26 16:00 | 37.24305 | 21.62039 | 11961 ft | 387 kts | 298° |
| 2026-04-26 16:00 | 37.25508 | 21.59032 | 11357 ft | 381 kts | 298° |
| 2026-04-26 16:01 | 37.26664 | 21.56130 | 11217 ft | 362 kts | 298° |
| 2026-04-26 16:01 | 37.27748 | 21.53406 | 11098 ft | 345 kts | 297° |
| 2026-04-26 16:01 | 37.28806 | 21.50748 | 10984 ft | 339 kts | 298° |
| 2026-04-26 16:01 | 37.29839 | 21.48149 | 10850 ft | 326 kts | 298° |
| 2026-04-26 16:02 | 37.30833 | 21.45654 | 10738 ft | 313 kts | 298° |
| 2026-04-26 16:02 | 37.31788 | 21.43255 | 10610 ft | 302 kts | 298° |
| 2026-04-26 16:02 | 37.32712 | 21.40936 | 10479 ft | 292 kts | 297° |
| 2026-04-26 16:02 | 37.33313 | 21.39431 | 10326 ft | 289 kts | 298° |
| 2026-04-26 16:03 | 37.34506 | 21.36438 | 10001 ft | 284 kts | 297° |
| 2026-04-26 16:03 | 37.35384 | 21.34223 | 9850 ft | 282 kts | 298° |
| 2026-04-26 16:03 | 37.36255 | 21.32026 | 9731 ft | 281 kts | 297° |
| 2026-04-26 16:03 | 37.37115 | 21.29855 | 9575 ft | 279 kts | 297° |
| 2026-04-26 16:04 | 37.37978 | 21.27673 | 9256 ft | 278 kts | 297° |
| 2026-04-26 16:04 | 37.38838 | 21.25497 | 8900 ft | 278 kts | 297° |
| 2026-04-26 16:04 | 37.39697 | 21.23318 | 8512 ft | 278 kts | 297° |
| 2026-04-26 16:04 | 37.40557 | 21.21138 | 8142 ft | 278 kts | 297° |
| 2026-04-26 16:05 | 37.41417 | 21.18956 | 7774 ft | 279 kts | 297° |
| 2026-04-26 16:05 | 37.42283 | 21.16767 | 7410 ft | 279 kts | 297° |
| 2026-04-26 16:05 | 37.43143 | 21.14589 | 7065 ft | 278 kts | 297° |
| 2026-04-26 16:05 | 37.43999 | 21.12416 | 6714 ft | 278 kts | 297° |
| 2026-04-26 16:06 | 37.44855 | 21.10242 | 6417 ft | 276 kts | 297° |
| 2026-04-26 16:06 | 37.45692 | 21.08115 | 5922 ft | 271 kts | 296° |
| 2026-04-26 16:06 | 37.46521 | 21.06004 | 5549 ft | 268 kts | 296° |
| 2026-04-26 16:06 | 37.47344 | 21.03908 | 5187 ft | 265 kts | 296° |
| 2026-04-26 16:07 | 37.48147 | 21.01863 | 4834 ft | 255 kts | 296° |
| 2026-04-26 16:07 | 37.48920 | 20.99893 | 4496 ft | 247 kts | 297° |
| 2026-04-26 16:07 | 37.49845 | 20.98079 | 4160 ft | 247 kts | 315° |
| 2026-04-26 16:07 | 37.51271 | 20.96901 | 3825 ft | 247 kts | 340° |
| 2026-04-26 16:08 | 37.52359 | 20.96490 | 3602 ft | 243 kts | 343° |
| 2026-04-26 16:08 | 37.53954 | 20.95927 | 3285 ft | 233 kts | 343° |
| 2026-04-26 16:08 | 37.55998 | 20.95198 | 2914 ft | 227 kts | 342° |
| 2026-04-26 16:08 | 37.57482 | 20.94660 | 2784 ft | 217 kts | 342° |
| 2026-04-26 16:09 | 37.58435 | 20.94311 | 2700 ft | 212 kts | 342° |
| 2026-04-26 16:09 | 37.59821 | 20.93804 | 2557 ft | 204 kts | 342° |
| 2026-04-26 16:09 | 37.61157 | 20.93317 | 2423 ft | 195 kts | 342° |
| 2026-04-26 16:09 | 37.62433 | 20.92852 | 2300 ft | 188 kts | 341° |
| 2026-04-26 16:10 | 37.63644 | 20.92411 | 2185 ft | 171 kts | 342° |
| 2026-04-26 16:10 | 37.64753 | 20.92025 | 1950 ft | 159 kts | 341° |
| 2026-04-26 16:10 | 37.65768 | 20.91678 | 1732 ft | 144 kts | 341° |
| 2026-04-26 16:10 | 37.66709 | 20.91368 | 1607 ft | 137 kts | 341° |
| 2026-04-26 16:11 | 37.67635 | 20.91112 | 1406 ft | 134 kts | 343° |
| 2026-04-26 16:11 | 37.68546 | 20.90834 | 1153 ft | 135 kts | 341° |
| 2026-04-26 16:11 | 37.69434 | 20.90496 | 932 ft | 135 kts | 341° |
| 2026-04-26 16:11 | 37.70352 | 20.90191 | 817 ft | 136 kts | 343° |
| 2026-04-26 16:12 | 37.71264 | 20.89860 | 709 ft | 136 kts | 341° |
| 2026-04-26 16:12 | 37.72167 | 20.89517 | 467 ft | 134 kts | 341° |
| 2026-04-26 16:12 | 37.73965 | 20.88844 | 118 ft | 135 kts | 342° |
| 2026-04-26 16:13 | 37.74791 | 20.88538 | 30 ft | 124 kts | 342° |
| 2026-04-26 16:13 | 37.75494 | 20.88276 | 21 ft | 82 kts | 343° |
| 2026-04-26 16:13 | 37.75799 | 20.88162 | 23 ft | 27 kts | 343° |
| 2026-04-26 16:13 | 37.75854 | 20.88154 | 24 ft | 3 kts | 278° |
| 2026-04-26 16:14 | 37.75838 | 20.88152 | 26 ft | 3 kts | 178° |
| 2026-04-26 16:14 | 37.75817 | 20.88156 | 23 ft | 4 kts | 169° |
| 2026-04-26 16:14 | 37.75747 | 20.88182 | 26 ft | 7 kts | 163° |
| 2026-04-26 16:15 | 37.75670 | 20.88211 | 23 ft | 17 kts | 163° |
| 2026-04-26 16:15 | 37.75558 | 20.88253 | 21 ft | 16 kts | 162° |
| 2026-04-26 16:15 | 37.75481 | 20.88334 | 23 ft | 14 kts | 116° |
| 2026-04-26 16:16 | 37.75443 | 20.88483 | 20 ft | 7 kts | 73° |
| 2026-04-26 16:16 | 37.75449 | 20.88509 | 20 ft | 0 kts | 73° |